sensor_id;sensor_type;location;lat;lon;timestamp;P1;durP1;ratioP1;P2;durP2;ratioP2
1509;SDS011;746;48.688;9.428;2023-03-15T00:01:45;4.17;;;3.63;;
1509;SDS011;746;48.688;9.428;2023-03-15T00:04:06;5.27;;;3.67;;
1509;SDS011;746;48.688;9.428;2023-03-15T00:06:30;4.10;;;3.70;;
1509;SDS011;746;48.688;9.428;2023-03-15T00:08:54;4.00;;;3.60;;
1509;SDS011;746;48.688;9.428;2023-03-15T00:11:15;3.73;;;3.43;;
1509;SDS011;746;48.688;9.428;2023-03-15T00:13:37;4.10;;;3.70;;
1509;SDS011;746;48.688;9.428;2023-03-15T00:15:59;4.77;;;4.00;;
1509;SDS011;746;48.688;9.428;2023-03-15T00:18:22;4.03;;;3.37;;
1509;SDS011;746;48.688;9.428;2023-03-15T00:20:44;4.93;;;3.60;;
1509;SDS011;746;48.688;9.428;2023-03-15T00:23:06;4.33;;;3.93;;
1509;SDS011;746;48.688;9.428;2023-03-15T00:25:29;5.17;;;4.53;;
1509;SDS011;746;48.688;9.428;2023-03-15T00:27:50;4.40;;;4.00;;
1509;SDS011;746;48.688;9.428;2023-03-15T00:30:12;6.13;;;4.30;;
1509;SDS011;746;48.688;9.428;2023-03-15T00:32:33;5.13;;;4.40;;
1509;SDS011;746;48.688;9.428;2023-03-15T00:34:55;6.27;;;5.13;;
1509;SDS011;746;48.688;9.428;2023-03-15T00:37:16;5.67;;;5.17;;
1509;SDS011;746;48.688;9.428;2023-03-15T00:39:40;6.33;;;5.73;;
1509;SDS011;746;48.688;9.428;2023-03-15T00:42:06;6.00;;;5.07;;
1509;SDS011;746;48.688;9.428;2023-03-15T00:44:27;5.40;;;4.90;;
1509;SDS011;746;48.688;9.428;2023-03-15T00:46:49;6.03;;;4.93;;
1509;SDS011;746;48.688;9.428;2023-03-15T00:49:10;5.80;;;5.20;;
1509;SDS011;746;48.688;9.428;2023-03-15T00:51:32;5.93;;;4.93;;
1509;SDS011;746;48.688;9.428;2023-03-15T00:53:53;5.60;;;5.03;;
1509;SDS011;746;48.688;9.428;2023-03-15T00:56:15;6.80;;;5.37;;
1509;SDS011;746;48.688;9.428;2023-03-15T00:58:39;5.70;;;5.10;;
1509;SDS011;746;48.688;9.428;2023-03-15T01:01:03;6.70;;;5.60;;
1509;SDS011;746;48.688;9.428;2023-03-15T01:03:25;6.73;;;6.03;;
1509;SDS011;746;48.688;9.428;2023-03-15T01:05:46;7.07;;;6.37;;
1509;SDS011;746;48.688;9.428;2023-03-15T01:08:09;8.47;;;7.20;;
1509;SDS011;746;48.688;9.428;2023-03-15T01:10:33;8.23;;;7.43;;
1509;SDS011;746;48.688;9.428;2023-03-15T01:12:54;8.10;;;7.13;;
1509;SDS011;746;48.688;9.428;2023-03-15T01:15:17;11.97;;;8.00;;
1509;SDS011;746;48.688;9.428;2023-03-15T01:17:39;8.57;;;7.60;;
1509;SDS011;746;48.688;9.428;2023-03-15T01:20:00;8.63;;;7.53;;
1509;SDS011;746;48.688;9.428;2023-03-15T01:22:24;9.87;;;7.63;;
1509;SDS011;746;48.688;9.428;2023-03-15T01:24:45;9.13;;;7.57;;
1509;SDS011;746;48.688;9.428;2023-03-15T01:27:08;10.70;;;7.87;;
1509;SDS011;746;48.688;9.428;2023-03-15T01:29:29;9.17;;;7.23;;
1509;SDS011;746;48.688;9.428;2023-03-15T01:31:51;8.57;;;7.10;;
1509;SDS011;746;48.688;9.428;2023-03-15T01:34:13;9.47;;;7.43;;
1509;SDS011;746;48.688;9.428;2023-03-15T01:36:34;8.47;;;7.57;;
1509;SDS011;746;48.688;9.428;2023-03-15T01:38:56;9.47;;;7.53;;
1509;SDS011;746;48.688;9.428;2023-03-15T01:41:18;10.23;;;7.07;;
1509;SDS011;746;48.688;9.428;2023-03-15T01:43:40;10.00;;;7.53;;
1509;SDS011;746;48.688;9.428;2023-03-15T01:48:46;10.33;;;8.13;;
1509;SDS011;746;48.688;9.428;2023-03-15T01:51:10;10.60;;;8.33;;
1509;SDS011;746;48.688;9.428;2023-03-15T01:53:35;11.03;;;8.57;;
1509;SDS011;746;48.688;9.428;2023-03-15T01:55:58;12.07;;;8.10;;
1509;SDS011;746;48.688;9.428;2023-03-15T01:58:19;11.30;;;7.43;;
1509;SDS011;746;48.688;9.428;2023-03-15T02:00:41;10.00;;;7.63;;
1509;SDS011;746;48.688;9.428;2023-03-15T02:03:04;10.87;;;7.90;;
1509;SDS011;746;48.688;9.428;2023-03-15T02:05:29;11.93;;;7.67;;
1509;SDS011;746;48.688;9.428;2023-03-15T02:07:52;9.53;;;7.40;;
1509;SDS011;746;48.688;9.428;2023-03-15T02:10:15;10.27;;;7.57;;
1509;SDS011;746;48.688;9.428;2023-03-15T02:12:41;7.80;;;6.47;;
1509;SDS011;746;48.688;9.428;2023-03-15T02:15:05;8.90;;;6.40;;
1509;SDS011;746;48.688;9.428;2023-03-15T02:17:29;9.10;;;6.80;;
1509;SDS011;746;48.688;9.428;2023-03-15T02:19:54;7.70;;;6.07;;
1509;SDS011;746;48.688;9.428;2023-03-15T02:22:24;11.53;;;6.83;;
1509;SDS011;746;48.688;9.428;2023-03-15T02:24:51;10.17;;;7.17;;
1509;SDS011;746;48.688;9.428;2023-03-15T02:27:19;9.03;;;7.10;;
1509;SDS011;746;48.688;9.428;2023-03-15T02:29:43;9.90;;;7.57;;
1509;SDS011;746;48.688;9.428;2023-03-15T02:32:04;9.53;;;7.50;;
1509;SDS011;746;48.688;9.428;2023-03-15T02:34:26;9.63;;;6.80;;
1509;SDS011;746;48.688;9.428;2023-03-15T02:36:47;8.93;;;6.00;;
1509;SDS011;746;48.688;9.428;2023-03-15T02:39:12;9.63;;;6.23;;
1509;SDS011;746;48.688;9.428;2023-03-15T02:41:35;9.30;;;6.10;;
1509;SDS011;746;48.688;9.428;2023-03-15T02:44:00;8.10;;;6.00;;
1509;SDS011;746;48.688;9.428;2023-03-15T02:46:23;9.27;;;6.67;;
1509;SDS011;746;48.688;9.428;2023-03-15T02:48:45;8.27;;;6.20;;
1509;SDS011;746;48.688;9.428;2023-03-15T02:51:09;7.77;;;6.23;;
1509;SDS011;746;48.688;9.428;2023-03-15T02:53:36;8.60;;;6.27;;
1509;SDS011;746;48.688;9.428;2023-03-15T02:55:57;10.07;;;5.97;;
1509;SDS011;746;48.688;9.428;2023-03-15T02:58:20;7.90;;;5.43;;
1509;SDS011;746;48.688;9.428;2023-03-15T03:00:42;8.40;;;5.37;;
1509;SDS011;746;48.688;9.428;2023-03-15T03:03:04;7.00;;;5.17;;
1509;SDS011;746;48.688;9.428;2023-03-15T03:05:27;7.13;;;4.90;;
1509;SDS011;746;48.688;9.428;2023-03-15T03:07:49;7.53;;;4.97;;
1509;SDS011;746;48.688;9.428;2023-03-15T03:10:11;5.63;;;4.73;;
1509;SDS011;746;48.688;9.428;2023-03-15T03:12:34;7.73;;;4.60;;
1509;SDS011;746;48.688;9.428;2023-03-15T03:14:55;6.43;;;4.60;;
1509;SDS011;746;48.688;9.428;2023-03-15T03:17:19;6.10;;;5.03;;
1509;SDS011;746;48.688;9.428;2023-03-15T03:19:40;5.50;;;4.80;;
1509;SDS011;746;48.688;9.428;2023-03-15T03:22:01;8.43;;;5.07;;
1509;SDS011;746;48.688;9.428;2023-03-15T03:24:24;7.13;;;4.40;;
1509;SDS011;746;48.688;9.428;2023-03-15T03:26:46;5.20;;;4.27;;
1509;SDS011;746;48.688;9.428;2023-03-15T03:29:07;8.30;;;4.93;;
1509;SDS011;746;48.688;9.428;2023-03-15T03:31:29;9.20;;;4.60;;
1509;SDS011;746;48.688;9.428;2023-03-15T03:33:54;9.97;;;4.80;;
1509;SDS011;746;48.688;9.428;2023-03-15T03:36:16;9.00;;;4.97;;
1509;SDS011;746;48.688;9.428;2023-03-15T03:38:39;6.47;;;4.07;;
1509;SDS011;746;48.688;9.428;2023-03-15T03:41:01;7.50;;;4.23;;
1509;SDS011;746;48.688;9.428;2023-03-15T03:43:22;7.93;;;4.07;;
1509;SDS011;746;48.688;9.428;2023-03-15T03:45:44;6.87;;;4.47;;
1509;SDS011;746;48.688;9.428;2023-03-15T03:48:05;9.10;;;4.77;;
1509;SDS011;746;48.688;9.428;2023-03-15T03:50:29;6.37;;;4.10;;
1509;SDS011;746;48.688;9.428;2023-03-15T03:52:50;6.87;;;4.30;;
1509;SDS011;746;48.688;9.428;2023-03-15T03:55:12;5.97;;;4.00;;
1509;SDS011;746;48.688;9.428;2023-03-15T03:57:33;6.20;;;3.90;;
1509;SDS011;746;48.688;9.428;2023-03-15T03:59:54;6.87;;;4.30;;
1509;SDS011;746;48.688;9.428;2023-03-15T04:02:18;9.07;;;4.30;;
1509;SDS011;746;48.688;9.428;2023-03-15T04:04:39;7.10;;;4.00;;
1509;SDS011;746;48.688;9.428;2023-03-15T04:07:02;7.30;;;3.83;;
1509;SDS011;746;48.688;9.428;2023-03-15T04:09:23;9.13;;;4.00;;
1509;SDS011;746;48.688;9.428;2023-03-15T04:11:44;7.57;;;3.93;;
1509;SDS011;746;48.688;9.428;2023-03-15T04:14:06;4.27;;;3.87;;
1509;SDS011;746;48.688;9.428;2023-03-15T04:16:27;6.93;;;4.10;;
1509;SDS011;746;48.688;9.428;2023-03-15T04:18:49;6.97;;;3.83;;
1509;SDS011;746;48.688;9.428;2023-03-15T04:21:10;7.10;;;4.10;;
1509;SDS011;746;48.688;9.428;2023-03-15T04:23:34;7.93;;;4.40;;
1509;SDS011;746;48.688;9.428;2023-03-15T04:25:55;7.43;;;4.10;;
1509;SDS011;746;48.688;9.428;2023-03-15T04:28:20;9.33;;;4.30;;
1509;SDS011;746;48.688;9.428;2023-03-15T04:30:42;6.80;;;3.83;;
1509;SDS011;746;48.688;9.428;2023-03-15T04:33:04;7.63;;;4.87;;
1509;SDS011;746;48.688;9.428;2023-03-15T04:35:26;5.40;;;3.77;;
1509;SDS011;746;48.688;9.428;2023-03-15T04:37:47;4.23;;;3.63;;
1509;SDS011;746;48.688;9.428;2023-03-15T04:40:10;5.40;;;4.03;;
1509;SDS011;746;48.688;9.428;2023-03-15T04:42:32;6.37;;;3.83;;
1509;SDS011;746;48.688;9.428;2023-03-15T04:44:53;7.23;;;3.60;;
1509;SDS011;746;48.688;9.428;2023-03-15T04:47:15;8.83;;;4.30;;
1509;SDS011;746;48.688;9.428;2023-03-15T04:49:37;12.30;;;5.87;;
1509;SDS011;746;48.688;9.428;2023-03-15T04:51:58;11.70;;;7.37;;
1509;SDS011;746;48.688;9.428;2023-03-15T04:54:21;11.47;;;6.63;;
1509;SDS011;746;48.688;9.428;2023-03-15T04:56:45;11.67;;;6.33;;
1509;SDS011;746;48.688;9.428;2023-03-15T04:59:07;10.63;;;5.50;;
1509;SDS011;746;48.688;9.428;2023-03-15T05:01:30;9.37;;;5.27;;
1509;SDS011;746;48.688;9.428;2023-03-15T05:03:52;11.43;;;4.90;;
1509;SDS011;746;48.688;9.428;2023-03-15T05:06:13;7.17;;;3.67;;
1509;SDS011;746;48.688;9.428;2023-03-15T05:08:35;5.87;;;4.20;;
1509;SDS011;746;48.688;9.428;2023-03-15T05:10:56;7.37;;;4.00;;
1509;SDS011;746;48.688;9.428;2023-03-15T05:13:19;8.33;;;4.40;;
1509;SDS011;746;48.688;9.428;2023-03-15T05:15:41;6.90;;;4.70;;
1509;SDS011;746;48.688;9.428;2023-03-15T05:18:02;8.17;;;4.60;;
1509;SDS011;746;48.688;9.428;2023-03-15T05:20:23;8.00;;;4.27;;
1509;SDS011;746;48.688;9.428;2023-03-15T05:22:45;9.07;;;4.90;;
1509;SDS011;746;48.688;9.428;2023-03-15T05:25:09;9.90;;;4.53;;
1509;SDS011;746;48.688;9.428;2023-03-15T05:27:30;6.30;;;4.17;;
1509;SDS011;746;48.688;9.428;2023-03-15T05:29:54;9.70;;;4.73;;
1509;SDS011;746;48.688;9.428;2023-03-15T05:32:15;6.73;;;4.70;;
1509;SDS011;746;48.688;9.428;2023-03-15T05:34:37;10.43;;;4.63;;
1509;SDS011;746;48.688;9.428;2023-03-15T05:36:58;9.13;;;4.83;;
1509;SDS011;746;48.688;9.428;2023-03-15T05:39:20;6.90;;;4.60;;
1509;SDS011;746;48.688;9.428;2023-03-15T05:41:43;8.30;;;4.83;;
1509;SDS011;746;48.688;9.428;2023-03-15T05:44:04;9.17;;;5.13;;
1509;SDS011;746;48.688;9.428;2023-03-15T05:46:27;7.07;;;4.80;;
1509;SDS011;746;48.688;9.428;2023-03-15T05:48:48;8.67;;;5.23;;
1509;SDS011;746;48.688;9.428;2023-03-15T05:51:10;7.97;;;5.10;;
1509;SDS011;746;48.688;9.428;2023-03-15T05:53:32;9.17;;;5.17;;
1509;SDS011;746;48.688;9.428;2023-03-15T05:55:53;7.27;;;5.50;;
1509;SDS011;746;48.688;9.428;2023-03-15T05:58:14;5.33;;;4.83;;
1509;SDS011;746;48.688;9.428;2023-03-15T06:00:36;9.10;;;5.80;;
1509;SDS011;746;48.688;9.428;2023-03-15T06:02:58;8.87;;;4.80;;
1509;SDS011;746;48.688;9.428;2023-03-15T06:05:20;9.17;;;5.27;;
1509;SDS011;746;48.688;9.428;2023-03-15T06:07:41;9.57;;;5.90;;
1509;SDS011;746;48.688;9.428;2023-03-15T06:10:02;8.50;;;5.27;;
1509;SDS011;746;48.688;9.428;2023-03-15T06:12:24;10.97;;;5.50;;
1509;SDS011;746;48.688;9.428;2023-03-15T06:14:46;9.27;;;5.60;;
1509;SDS011;746;48.688;9.428;2023-03-15T06:17:07;12.10;;;5.50;;
1509;SDS011;746;48.688;9.428;2023-03-15T06:19:30;8.33;;;5.13;;
1509;SDS011;746;48.688;9.428;2023-03-15T06:21:51;9.07;;;5.47;;
1509;SDS011;746;48.688;9.428;2023-03-15T06:24:12;7.57;;;5.10;;
1509;SDS011;746;48.688;9.428;2023-03-15T06:26:34;7.13;;;5.10;;
1509;SDS011;746;48.688;9.428;2023-03-15T06:28:55;10.37;;;5.13;;
1509;SDS011;746;48.688;9.428;2023-03-15T06:31:16;9.30;;;5.30;;
1509;SDS011;746;48.688;9.428;2023-03-15T06:33:38;8.60;;;5.40;;
1509;SDS011;746;48.688;9.428;2023-03-15T06:36:00;11.67;;;5.87;;
1509;SDS011;746;48.688;9.428;2023-03-15T06:38:22;13.00;;;6.80;;
1509;SDS011;746;48.688;9.428;2023-03-15T06:40:43;10.10;;;6.03;;
1509;SDS011;746;48.688;9.428;2023-03-15T06:43:05;12.37;;;6.43;;
1509;SDS011;746;48.688;9.428;2023-03-15T06:45:27;10.70;;;6.83;;
1509;SDS011;746;48.688;9.428;2023-03-15T06:47:50;10.33;;;6.27;;
1509;SDS011;746;48.688;9.428;2023-03-15T06:50:12;9.73;;;6.57;;
1509;SDS011;746;48.688;9.428;2023-03-15T06:52:35;9.10;;;6.00;;
1509;SDS011;746;48.688;9.428;2023-03-15T06:54:57;5.57;;;5.03;;
1509;SDS011;746;48.688;9.428;2023-03-15T06:57:19;7.77;;;4.93;;
1509;SDS011;746;48.688;9.428;2023-03-15T06:59:40;6.40;;;5.70;;
1509;SDS011;746;48.688;9.428;2023-03-15T07:02:01;8.17;;;5.40;;
1509;SDS011;746;48.688;9.428;2023-03-15T07:04:23;8.63;;;5.80;;
1509;SDS011;746;48.688;9.428;2023-03-15T07:06:45;6.73;;;5.30;;
1509;SDS011;746;48.688;9.428;2023-03-15T07:09:07;8.47;;;6.03;;
1509;SDS011;746;48.688;9.428;2023-03-15T07:11:29;6.47;;;5.67;;
1509;SDS011;746;48.688;9.428;2023-03-15T07:13:50;8.40;;;5.07;;
1509;SDS011;746;48.688;9.428;2023-03-15T07:16:11;11.80;;;6.90;;
1509;SDS011;746;48.688;9.428;2023-03-15T07:18:33;9.83;;;6.40;;
1509;SDS011;746;48.688;9.428;2023-03-15T07:20:55;10.93;;;5.90;;
1509;SDS011;746;48.688;9.428;2023-03-15T07:23:16;10.13;;;5.40;;
1509;SDS011;746;48.688;9.428;2023-03-15T07:25:39;9.53;;;5.50;;
1509;SDS011;746;48.688;9.428;2023-03-15T07:28:14;6.43;;;5.33;;
1509;SDS011;746;48.688;9.428;2023-03-15T07:30:35;5.87;;;5.33;;
1509;SDS011;746;48.688;9.428;2023-03-15T07:32:56;6.23;;;5.63;;
1509;SDS011;746;48.688;9.428;2023-03-15T07:35:18;6.57;;;5.20;;
1509;SDS011;746;48.688;9.428;2023-03-15T07:37:39;11.33;;;5.50;;
1509;SDS011;746;48.688;9.428;2023-03-15T07:40:04;9.27;;;5.17;;
1509;SDS011;746;48.688;9.428;2023-03-15T07:42:29;7.37;;;5.10;;
1509;SDS011;746;48.688;9.428;2023-03-15T07:44:51;9.50;;;5.10;;
1509;SDS011;746;48.688;9.428;2023-03-15T07:47:12;7.23;;;4.83;;
1509;SDS011;746;48.688;9.428;2023-03-15T07:49:34;11.47;;;5.40;;
1509;SDS011;746;48.688;9.428;2023-03-15T07:51:55;8.00;;;4.97;;
1509;SDS011;746;48.688;9.428;2023-03-15T07:54:17;8.60;;;4.63;;
1509;SDS011;746;48.688;9.428;2023-03-15T07:56:38;6.50;;;3.93;;
1509;SDS011;746;48.688;9.428;2023-03-15T07:59:01;8.43;;;4.30;;
1509;SDS011;746;48.688;9.428;2023-03-15T08:01:22;8.37;;;4.23;;
1509;SDS011;746;48.688;9.428;2023-03-15T08:03:44;4.83;;;3.40;;
1509;SDS011;746;48.688;9.428;2023-03-15T08:06:05;5.67;;;4.10;;
1509;SDS011;746;48.688;9.428;2023-03-15T08:08:26;6.97;;;3.97;;
1509;SDS011;746;48.688;9.428;2023-03-15T08:10:48;5.97;;;3.40;;
1509;SDS011;746;48.688;9.428;2023-03-15T08:13:09;10.53;;;3.70;;
1509;SDS011;746;48.688;9.428;2023-03-15T08:15:32;9.17;;;4.10;;
1509;SDS011;746;48.688;9.428;2023-03-15T08:17:53;9.73;;;4.30;;
1509;SDS011;746;48.688;9.428;2023-03-15T08:20:15;5.17;;;3.97;;
1509;SDS011;746;48.688;9.428;2023-03-15T08:22:37;3.70;;;3.07;;
1509;SDS011;746;48.688;9.428;2023-03-15T08:24:59;7.50;;;3.20;;
1509;SDS011;746;48.688;9.428;2023-03-15T08:27:20;2.90;;;2.27;;
1509;SDS011;746;48.688;9.428;2023-03-15T08:29:41;4.33;;;2.77;;
1509;SDS011;746;48.688;9.428;2023-03-15T08:32:04;4.63;;;2.70;;
1509;SDS011;746;48.688;9.428;2023-03-15T08:34:26;5.40;;;2.97;;
1509;SDS011;746;48.688;9.428;2023-03-15T08:36:48;2.97;;;2.53;;
1509;SDS011;746;48.688;9.428;2023-03-15T08:39:10;5.03;;;2.63;;
1509;SDS011;746;48.688;9.428;2023-03-15T08:41:31;4.07;;;2.43;;
1509;SDS011;746;48.688;9.428;2023-03-15T08:43:52;2.17;;;2.07;;
1509;SDS011;746;48.688;9.428;2023-03-15T08:46:14;5.13;;;2.53;;
1509;SDS011;746;48.688;9.428;2023-03-15T08:48:38;4.03;;;2.43;;
1509;SDS011;746;48.688;9.428;2023-03-15T08:51:03;3.80;;;2.63;;
1509;SDS011;746;48.688;9.428;2023-03-15T08:53:26;2.43;;;1.83;;
1509;SDS011;746;48.688;9.428;2023-03-15T08:55:47;3.40;;;2.20;;
1509;SDS011;746;48.688;9.428;2023-03-15T08:58:09;3.53;;;2.37;;
1509;SDS011;746;48.688;9.428;2023-03-15T09:00:31;6.30;;;2.67;;
1509;SDS011;746;48.688;9.428;2023-03-15T09:02:52;4.47;;;2.33;;
1509;SDS011;746;48.688;9.428;2023-03-15T09:05:15;4.43;;;2.63;;
1509;SDS011;746;48.688;9.428;2023-03-15T09:07:37;8.20;;;2.70;;
1509;SDS011;746;48.688;9.428;2023-03-15T09:09:59;4.53;;;2.13;;
1509;SDS011;746;48.688;9.428;2023-03-15T09:12:24;5.60;;;2.03;;
1509;SDS011;746;48.688;9.428;2023-03-15T09:14:46;4.00;;;2.00;;
1509;SDS011;746;48.688;9.428;2023-03-15T09:17:08;4.30;;;1.73;;
1509;SDS011;746;48.688;9.428;2023-03-15T09:19:29;2.27;;;1.87;;
1509;SDS011;746;48.688;9.428;2023-03-15T09:21:53;3.77;;;2.07;;
1509;SDS011;746;48.688;9.428;2023-03-15T09:24:16;2.17;;;1.90;;
1509;SDS011;746;48.688;9.428;2023-03-15T09:26:37;3.90;;;2.00;;
1509;SDS011;746;48.688;9.428;2023-03-15T09:28:58;4.03;;;2.60;;
1509;SDS011;746;48.688;9.428;2023-03-15T09:31:19;3.13;;;2.10;;
1509;SDS011;746;48.688;9.428;2023-03-15T09:33:41;4.90;;;2.10;;
1509;SDS011;746;48.688;9.428;2023-03-15T09:36:06;3.90;;;2.40;;
1509;SDS011;746;48.688;9.428;2023-03-15T09:38:28;4.60;;;3.40;;
1509;SDS011;746;48.688;9.428;2023-03-15T09:40:50;4.50;;;2.50;;
1509;SDS011;746;48.688;9.428;2023-03-15T09:43:23;6.33;;;2.60;;
1509;SDS011;746;48.688;9.428;2023-03-15T09:45:54;2.23;;;1.90;;
1509;SDS011;746;48.688;9.428;2023-03-15T09:48:21;6.17;;;2.17;;
1509;SDS011;746;48.688;9.428;2023-03-15T09:50:44;2.83;;;2.00;;
1509;SDS011;746;48.688;9.428;2023-03-15T09:53:08;3.10;;;1.97;;
1509;SDS011;746;48.688;9.428;2023-03-15T09:55:31;2.10;;;1.90;;
1509;SDS011;746;48.688;9.428;2023-03-15T09:57:52;3.47;;;2.07;;
1509;SDS011;746;48.688;9.428;2023-03-15T10:00:16;3.37;;;2.10;;
1509;SDS011;746;48.688;9.428;2023-03-15T10:02:41;3.33;;;2.10;;
1509;SDS011;746;48.688;9.428;2023-03-15T10:05:04;4.00;;;2.60;;
1509;SDS011;746;48.688;9.428;2023-03-15T10:07:26;5.53;;;2.30;;
1509;SDS011;746;48.688;9.428;2023-03-15T10:09:47;3.57;;;2.10;;
1509;SDS011;746;48.688;9.428;2023-03-15T10:12:11;3.37;;;2.80;;
1509;SDS011;746;48.688;9.428;2023-03-15T10:14:46;3.47;;;2.20;;
1509;SDS011;746;48.688;9.428;2023-03-15T10:17:10;3.03;;;2.53;;
1509;SDS011;746;48.688;9.428;2023-03-15T10:19:34;5.63;;;2.60;;
1509;SDS011;746;48.688;9.428;2023-03-15T10:21:59;2.70;;;2.27;;
1509;SDS011;746;48.688;9.428;2023-03-15T10:24:22;3.23;;;2.03;;
1509;SDS011;746;48.688;9.428;2023-03-15T10:26:45;5.13;;;3.03;;
1509;SDS011;746;48.688;9.428;2023-03-15T10:29:11;4.83;;;3.07;;
1509;SDS011;746;48.688;9.428;2023-03-15T10:31:34;4.27;;;2.80;;
1509;SDS011;746;48.688;9.428;2023-03-15T10:34:03;6.23;;;2.47;;
1509;SDS011;746;48.688;9.428;2023-03-15T10:36:25;5.97;;;3.10;;
1509;SDS011;746;48.688;9.428;2023-03-15T10:38:46;4.70;;;3.17;;
1509;SDS011;746;48.688;9.428;2023-03-15T10:41:09;2.80;;;2.13;;
1509;SDS011;746;48.688;9.428;2023-03-15T10:43:34;3.50;;;2.00;;
1509;SDS011;746;48.688;9.428;2023-03-15T10:45:58;3.73;;;2.27;;
1509;SDS011;746;48.688;9.428;2023-03-15T10:48:20;3.97;;;2.10;;
1509;SDS011;746;48.688;9.428;2023-03-15T10:50:41;3.57;;;2.47;;
1509;SDS011;746;48.688;9.428;2023-03-15T10:53:07;3.40;;;2.40;;
1509;SDS011;746;48.688;9.428;2023-03-15T10:55:29;2.57;;;2.20;;
1509;SDS011;746;48.688;9.428;2023-03-15T10:57:53;2.10;;;1.90;;
1509;SDS011;746;48.688;9.428;2023-03-15T11:00:22;2.30;;;2.00;;
1509;SDS011;746;48.688;9.428;2023-03-15T11:02:51;4.63;;;2.10;;
1509;SDS011;746;48.688;9.428;2023-03-15T11:05:14;3.47;;;2.20;;
1509;SDS011;746;48.688;9.428;2023-03-15T11:07:36;6.13;;;2.60;;
1509;SDS011;746;48.688;9.428;2023-03-15T11:09:58;2.23;;;2.03;;
1509;SDS011;746;48.688;9.428;2023-03-15T11:12:21;2.57;;;2.37;;
1509;SDS011;746;48.688;9.428;2023-03-15T11:14:44;4.97;;;2.03;;
1509;SDS011;746;48.688;9.428;2023-03-15T11:17:07;3.90;;;2.70;;
1509;SDS011;746;48.688;9.428;2023-03-15T11:19:31;4.23;;;2.40;;
1509;SDS011;746;48.688;9.428;2023-03-15T11:21:52;3.27;;;2.40;;
1509;SDS011;746;48.688;9.428;2023-03-15T11:24:18;2.60;;;1.80;;
1509;SDS011;746;48.688;9.428;2023-03-15T11:26:40;1.97;;;1.63;;
1509;SDS011;746;48.688;9.428;2023-03-15T11:29:13;2.47;;;1.93;;
1509;SDS011;746;48.688;9.428;2023-03-15T11:31:35;1.70;;;1.60;;
1509;SDS011;746;48.688;9.428;2023-03-15T11:33:57;3.20;;;1.90;;
1509;SDS011;746;48.688;9.428;2023-03-15T11:36:20;5.00;;;2.77;;
1509;SDS011;746;48.688;9.428;2023-03-15T11:38:43;2.47;;;2.27;;
1509;SDS011;746;48.688;9.428;2023-03-15T11:41:08;3.47;;;2.07;;
1509;SDS011;746;48.688;9.428;2023-03-15T11:43:33;2.60;;;2.00;;
1509;SDS011;746;48.688;9.428;2023-03-15T11:45:58;2.17;;;1.67;;
1509;SDS011;746;48.688;9.428;2023-03-15T11:48:22;3.87;;;2.10;;
1509;SDS011;746;48.688;9.428;2023-03-15T11:50:45;2.17;;;1.80;;
1509;SDS011;746;48.688;9.428;2023-03-15T11:53:08;4.90;;;2.27;;
1509;SDS011;746;48.688;9.428;2023-03-15T11:55:30;1.93;;;1.77;;
1509;SDS011;746;48.688;9.428;2023-03-15T11:57:52;2.13;;;1.93;;
1509;SDS011;746;48.688;9.428;2023-03-15T12:00:16;3.50;;;1.70;;
1509;SDS011;746;48.688;9.428;2023-03-15T12:02:46;2.97;;;1.70;;
1509;SDS011;746;48.688;9.428;2023-03-15T12:05:39;3.33;;;1.80;;
1509;SDS011;746;48.688;9.428;2023-03-15T12:07:58;3.17;;;1.73;;
1509;SDS011;746;48.688;9.428;2023-03-15T12:10:36;4.27;;;1.80;;
1509;SDS011;746;48.688;9.428;2023-03-15T12:13:07;2.07;;;1.73;;
1509;SDS011;746;48.688;9.428;2023-03-15T12:15:41;4.43;;;1.60;;
1509;SDS011;746;48.688;9.428;2023-03-15T12:18:02;4.97;;;1.70;;
1509;SDS011;746;48.688;9.428;2023-03-15T12:20:27;2.93;;;2.20;;
1509;SDS011;746;48.688;9.428;2023-03-15T12:23:03;1.83;;;1.60;;
1509;SDS011;746;48.688;9.428;2023-03-15T12:25:28;3.40;;;1.70;;
1509;SDS011;746;48.688;9.428;2023-03-15T12:27:54;1.90;;;1.70;;
1509;SDS011;746;48.688;9.428;2023-03-15T12:30:19;2.60;;;1.87;;
1509;SDS011;746;48.688;9.428;2023-03-15T12:32:42;3.50;;;1.93;;
1509;SDS011;746;48.688;9.428;2023-03-15T12:35:04;3.50;;;1.83;;
1509;SDS011;746;48.688;9.428;2023-03-15T12:37:30;3.37;;;1.60;;
1509;SDS011;746;48.688;9.428;2023-03-15T12:39:58;4.03;;;1.80;;
1509;SDS011;746;48.688;9.428;2023-03-15T12:47:44;3.07;;;1.60;;
1509;SDS011;746;48.688;9.428;2023-03-15T12:52:41;2.10;;;1.90;;
1509;SDS011;746;48.688;9.428;2023-03-15T12:55:05;3.50;;;1.80;;
1509;SDS011;746;48.688;9.428;2023-03-15T12:57:35;1.83;;;1.70;;
1509;SDS011;746;48.688;9.428;2023-03-15T12:59:57;2.03;;;1.57;;
1509;SDS011;746;48.688;9.428;2023-03-15T13:02:28;1.77;;;1.30;;
1509;SDS011;746;48.688;9.428;2023-03-15T13:05:14;5.30;;;4.80;;
1509;SDS011;746;48.688;9.428;2023-03-15T13:07:40;4.57;;;3.67;;
1509;SDS011;746;48.688;9.428;2023-03-15T13:10:17;4.57;;;1.97;;
1509;SDS011;746;48.688;9.428;2023-03-15T13:12:40;2.27;;;1.87;;
1509;SDS011;746;48.688;9.428;2023-03-15T13:15:05;4.27;;;2.00;;
1509;SDS011;746;48.688;9.428;2023-03-15T13:17:30;4.20;;;2.13;;
1509;SDS011;746;48.688;9.428;2023-03-15T13:19:55;2.00;;;1.80;;
1509;SDS011;746;48.688;9.428;2023-03-15T13:22:28;3.97;;;1.90;;
1509;SDS011;746;48.688;9.428;2023-03-15T13:24:55;4.00;;;1.93;;
1509;SDS011;746;48.688;9.428;2023-03-15T13:27:22;3.33;;;1.90;;
1509;SDS011;746;48.688;9.428;2023-03-15T13:29:47;3.07;;;1.80;;
1509;SDS011;746;48.688;9.428;2023-03-15T13:32:11;5.70;;;1.77;;
1509;SDS011;746;48.688;9.428;2023-03-15T13:34:33;2.20;;;2.00;;
1509;SDS011;746;48.688;9.428;2023-03-15T13:36:55;2.97;;;2.27;;
1509;SDS011;746;48.688;9.428;2023-03-15T13:39:19;2.60;;;2.40;;
1509;SDS011;746;48.688;9.428;2023-03-15T13:41:42;3.37;;;2.53;;
1509;SDS011;746;48.688;9.428;2023-03-15T13:44:06;3.97;;;2.37;;
1509;SDS011;746;48.688;9.428;2023-03-15T13:46:32;4.43;;;2.13;;
1509;SDS011;746;48.688;9.428;2023-03-15T13:48:54;4.40;;;2.23;;
1509;SDS011;746;48.688;9.428;2023-03-15T13:51:16;4.67;;;2.40;;
1509;SDS011;746;48.688;9.428;2023-03-15T13:53:38;2.67;;;2.17;;
1509;SDS011;746;48.688;9.428;2023-03-15T13:56:13;8.27;;;3.43;;
1509;SDS011;746;48.688;9.428;2023-03-15T13:58:36;3.33;;;2.57;;
1509;SDS011;746;48.688;9.428;2023-03-15T14:00:59;5.80;;;2.50;;
1509;SDS011;746;48.688;9.428;2023-03-15T14:03:21;3.57;;;2.60;;
1509;SDS011;746;48.688;9.428;2023-03-15T14:05:43;5.37;;;2.67;;
1509;SDS011;746;48.688;9.428;2023-03-15T14:08:05;3.07;;;2.50;;
1509;SDS011;746;48.688;9.428;2023-03-15T14:10:28;5.97;;;2.50;;
1509;SDS011;746;48.688;9.428;2023-03-15T14:12:51;3.07;;;2.83;;
1509;SDS011;746;48.688;9.428;2023-03-15T14:15:13;4.20;;;2.80;;
1509;SDS011;746;48.688;9.428;2023-03-15T14:17:34;4.53;;;2.37;;
1509;SDS011;746;48.688;9.428;2023-03-15T14:20:02;2.90;;;2.43;;
1509;SDS011;746;48.688;9.428;2023-03-15T14:22:25;3.77;;;2.80;;
1509;SDS011;746;48.688;9.428;2023-03-15T14:24:47;3.17;;;2.93;;
1509;SDS011;746;48.688;9.428;2023-03-15T14:27:13;5.17;;;2.60;;
1509;SDS011;746;48.688;9.428;2023-03-15T14:29:37;2.43;;;2.23;;
1509;SDS011;746;48.688;9.428;2023-03-15T14:31:59;3.60;;;2.70;;
1509;SDS011;746;48.688;9.428;2023-03-15T14:34:23;4.97;;;2.50;;
1509;SDS011;746;48.688;9.428;2023-03-15T14:36:44;3.57;;;2.13;;
1509;SDS011;746;48.688;9.428;2023-03-15T14:39:11;2.33;;;2.00;;
1509;SDS011;746;48.688;9.428;2023-03-15T14:41:36;3.50;;;2.03;;
1509;SDS011;746;48.688;9.428;2023-03-15T14:43:58;2.40;;;1.70;;
1509;SDS011;746;48.688;9.428;2023-03-15T14:46:22;2.63;;;1.70;;
1509;SDS011;746;48.688;9.428;2023-03-15T14:48:43;5.40;;;1.80;;
1509;SDS011;746;48.688;9.428;2023-03-15T14:51:05;3.33;;;2.30;;
1509;SDS011;746;48.688;9.428;2023-03-15T14:53:33;4.27;;;2.23;;
1509;SDS011;746;48.688;9.428;2023-03-15T14:55:55;2.53;;;2.33;;
1509;SDS011;746;48.688;9.428;2023-03-15T14:58:17;2.60;;;2.13;;
1509;SDS011;746;48.688;9.428;2023-03-15T15:00:38;6.30;;;2.60;;
1509;SDS011;746;48.688;9.428;2023-03-15T15:03:01;3.87;;;2.37;;
1509;SDS011;746;48.688;9.428;2023-03-15T15:05:23;4.37;;;2.47;;
1509;SDS011;746;48.688;9.428;2023-03-15T15:07:46;2.70;;;1.90;;
1509;SDS011;746;48.688;9.428;2023-03-15T15:10:08;2.97;;;1.90;;
1509;SDS011;746;48.688;9.428;2023-03-15T15:12:29;4.53;;;2.20;;
1509;SDS011;746;48.688;9.428;2023-03-15T15:14:51;5.40;;;2.63;;